createdAt,value
2023-02-09T00:01:33.176Z,12.65
2023-02-09T00:04:03.565Z,11.93
2023-02-09T00:06:33.306Z,12.75
2023-02-09T00:09:04.419Z,12.05
2023-02-09T00:11:53.923Z,12.23
2023-02-09T00:14:23.583Z,13.55
2023-02-09T00:16:54.172Z,12.77
2023-02-09T00:19:23.714Z,13.40
2023-02-09T00:21:53.139Z,12.65
2023-02-09T00:24:23.907Z,13.25
2023-02-09T00:26:53.445Z,13.98
2023-02-09T00:29:24.034Z,13.32
2023-02-09T00:31:53.667Z,11.80
2023-02-09T00:34:23.142Z,13.02
2023-02-09T00:42:07.548Z,11.02
2023-02-09T00:44:40.861Z,12.88
2023-02-09T00:49:41.066Z,12.68
2023-02-09T00:52:10.671Z,12.98
2023-02-09T00:54:40.329Z,14.23
2023-02-09T00:57:12.086Z,12.73
2023-02-09T00:59:42.486Z,13.90
2023-02-09T01:02:12.078Z,11.60
2023-02-09T01:04:41.816Z,13.40
2023-02-09T01:07:11.454Z,11.90
2023-02-09T01:09:41.100Z,12.38
2023-02-09T01:12:18.743Z,12.10
2023-02-09T01:14:48.775Z,11.68
2023-02-09T01:17:18.419Z,14.15
2023-02-09T01:19:52.480Z,12.95
2023-02-09T01:22:23.280Z,11.80
2023-02-09T01:24:53.010Z,13.23
2023-02-09T01:27:24.143Z,13.82
2023-02-09T01:29:55.224Z,9.13
2023-02-09T01:32:25.672Z,10.82
2023-02-09T01:55:24.318Z,10.60
2023-02-09T01:57:59.840Z,10.57
2023-02-09T02:00:29.543Z,11.32
2023-02-09T02:03:06.209Z,11.52
2023-02-09T02:05:40.923Z,12.10
2023-02-09T02:08:19.469Z,11.55
2023-02-09T02:10:50.504Z,11.65
2023-02-09T02:13:21.074Z,11.75
2023-02-09T02:16:05.613Z,12.27
2023-02-09T02:19:01.331Z,13.23
2023-02-09T02:22:32.256Z,10.57
2023-02-09T02:26:14.933Z,10.98
2023-02-09T02:29:39.877Z,12.48
2023-02-09T02:32:38.402Z,12.10
2023-02-09T02:35:20.127Z,10.27
2023-02-09T02:38:04.751Z,12.18
2023-02-09T02:40:51.049Z,15.60
2023-02-09T02:43:37.832Z,11.75
2023-02-09T02:46:16.938Z,12.57
2023-02-09T02:48:56.405Z,12.63
2023-02-09T02:51:33.059Z,11.45
2023-02-09T02:54:09.483Z,11.95
2023-02-09T02:56:44.734Z,11.32
2023-02-09T02:59:20.833Z,11.75
2023-02-09T03:01:58.603Z,12.60
2023-02-09T03:04:31.936Z,12.13
2023-02-09T03:09:31.000Z,12.43
2023-02-09T03:12:16.626Z,11.63
2023-02-09T03:15:08.686Z,10.90
2023-02-09T03:17:49.266Z,11.15
2023-02-09T03:20:33.409Z,14.50
2023-02-09T03:23:05.744Z,12.98
2023-02-09T03:25:43.088Z,9.47
2023-02-09T03:28:21.296Z,12.50
2023-02-09T03:30:52.948Z,11.05
2023-02-09T03:33:26.814Z,11.13
2023-02-09T03:36:00.987Z,10.05
2023-02-09T03:38:30.695Z,11.77
2023-02-09T03:41:00.207Z,12.90
2023-02-09T03:43:43.638Z,13.23
2023-02-09T03:46:13.689Z,10.13
2023-02-09T03:48:43.275Z,10.98
2023-02-09T03:51:14.225Z,10.93
2023-02-09T03:53:43.840Z,12.63
2023-02-09T03:56:13.495Z,12.55
2023-02-09T03:58:43.089Z,14.18
2023-02-09T04:01:12.973Z,11.63
2023-02-09T04:03:42.662Z,12.82
2023-02-09T04:06:14.409Z,14.52
2023-02-09T04:08:44.112Z,11.00
2023-02-09T04:11:13.552Z,11.27
2023-02-09T04:13:43.005Z,11.73
2023-02-09T04:16:12.595Z,12.55
2023-02-09T04:18:42.182Z,14.68
2023-02-09T04:21:13.537Z,13.15
2023-02-09T04:23:43.201Z,14.18
2023-02-09T04:26:12.920Z,12.57
2023-02-09T04:28:42.480Z,14.35
2023-02-09T04:31:12.428Z,13.02
2023-02-09T04:33:42.200Z,13.25
2023-02-09T04:36:13.655Z,13.23
2023-02-09T04:38:43.180Z,12.65
2023-02-09T04:41:12.621Z,14.20
2023-02-09T04:43:42.035Z,13.02
2023-02-09T04:46:14.425Z,16.17
2023-02-09T04:48:44.320Z,14.80
2023-02-09T04:51:15.627Z,14.35
2023-02-09T04:53:45.141Z,14.88
2023-02-09T04:56:16.945Z,13.48
2023-02-09T04:59:04.270Z,13.27
2023-02-09T05:01:34.324Z,15.23
2023-02-09T05:04:03.823Z,14.13
2023-02-09T05:06:34.648Z,13.48
2023-02-09T05:09:04.337Z,13.75
2023-02-09T05:11:33.763Z,13.90
2023-02-09T05:14:03.205Z,13.73
2023-02-09T05:16:32.733Z,12.82
2023-02-09T05:19:02.367Z,18.17
2023-02-09T05:21:31.821Z,15.50
2023-02-09T05:24:02.812Z,16.70
2023-02-09T05:26:32.779Z,15.88
2023-02-09T05:29:02.308Z,15.98
2023-02-09T05:31:32.057Z,16.52
2023-02-09T05:34:02.185Z,15.15
2023-02-09T05:36:31.774Z,13.75
2023-02-09T05:39:02.637Z,14.20
2023-02-09T05:41:49.499Z,15.52
2023-02-09T05:44:19.184Z,14.27
2023-02-09T05:46:48.703Z,13.48
2023-02-09T05:49:18.701Z,15.40
2023-02-09T05:51:48.233Z,14.80
2023-02-09T05:54:19.138Z,16.50
2023-02-09T05:56:49.149Z,14.57
2023-02-09T05:59:19.245Z,13.40
2023-02-09T06:01:48.660Z,13.65
2023-02-09T06:04:18.491Z,14.68
2023-02-09T06:06:48.134Z,15.75
2023-02-09T06:09:19.906Z,14.80
2023-02-09T06:11:49.399Z,14.68
2023-02-09T06:14:19.394Z,13.82
2023-02-09T06:16:49.075Z,15.75
2023-02-09T06:19:22.143Z,16.33
2023-02-09T06:21:51.601Z,15.45
2023-02-09T06:24:22.522Z,15.00
2023-02-09T06:26:52.033Z,16.20
2023-02-09T06:29:21.465Z,16.52
2023-02-09T06:31:51.013Z,15.35
2023-02-09T06:34:20.544Z,13.88
2023-02-09T06:36:49.994Z,17.10
2023-02-09T06:39:20.871Z,17.70
2023-02-09T06:41:51.879Z,15.75
2023-02-09T06:44:21.754Z,16.60
2023-02-09T06:46:51.288Z,17.13
2023-02-09T06:49:22.243Z,17.05
2023-02-09T06:51:51.977Z,16.70
2023-02-09T06:54:23.483Z,16.75
2023-02-09T06:56:53.027Z,17.55
2023-02-09T06:59:22.781Z,17.67
2023-02-09T07:01:54.821Z,17.73
2023-02-09T07:04:24.548Z,15.23
2023-02-09T07:06:54.004Z,15.57
2023-02-09T07:09:24.878Z,17.55
2023-02-09T07:11:54.313Z,20.80
2023-02-09T07:14:23.902Z,19.77
2023-02-09T07:16:53.452Z,22.42
2023-02-09T07:19:22.931Z,17.77
2023-02-09T07:21:52.423Z,24.77
2023-02-09T07:24:21.896Z,22.98
2023-02-09T07:26:52.717Z,22.45
2023-02-09T07:29:22.225Z,23.67
2023-02-09T07:31:51.747Z,23.83
2023-02-09T07:34:21.357Z,21.80
2023-02-09T07:36:50.940Z,22.73
2023-02-09T07:39:20.591Z,23.80
2023-02-09T07:41:50.286Z,24.58
2023-02-09T07:44:21.278Z,23.83
2023-02-09T07:46:51.994Z,23.52
2023-02-09T07:49:21.578Z,24.55
2023-02-09T07:51:51.142Z,24.77
2023-02-09T07:54:21.345Z,22.60
2023-02-09T07:56:50.997Z,21.50
2023-02-09T07:59:21.836Z,24.92
2023-02-09T08:01:52.048Z,22.48
2023-02-09T08:04:22.822Z,24.70
2023-02-09T08:06:53.247Z,23.40
2023-02-09T08:09:22.766Z,24.20
2023-02-09T08:11:57.449Z,23.27
2023-02-09T08:14:36.061Z,22.75
2023-02-09T08:17:24.171Z,21.80
2023-02-09T08:20:00.337Z,23.38
2023-02-09T08:22:34.702Z,23.80
2023-02-09T08:25:06.894Z,21.52
2023-02-09T08:27:37.993Z,21.50
2023-02-09T08:30:11.368Z,23.40
2023-02-09T08:35:10.931Z,22.48
2023-02-09T08:37:40.562Z,22.92
2023-02-09T08:40:11.733Z,21.25
2023-02-09T08:42:41.289Z,20.33
2023-02-09T08:45:12.580Z,20.23
2023-02-09T08:47:42.087Z,20.48
2023-02-09T08:50:11.935Z,19.52
2023-02-09T08:52:41.585Z,20.90
2023-02-09T08:55:11.234Z,17.52
2023-02-09T08:57:44.371Z,19.65
2023-02-09T09:00:18.059Z,19.15
2023-02-09T09:05:17.364Z,17.77
2023-02-09T09:07:46.798Z,19.77
2023-02-09T09:10:16.403Z,18.85
2023-02-09T09:12:45.954Z,21.55
2023-02-09T09:15:16.658Z,18.58
2023-02-09T09:17:46.270Z,19.00
2023-02-09T09:20:16.233Z,19.02
2023-02-09T09:22:45.768Z,19.02
2023-02-09T09:25:15.163Z,17.90
2023-02-09T09:27:44.805Z,16.20
2023-02-09T09:30:16.271Z,16.85
2023-02-09T09:32:45.901Z,15.85
2023-02-09T09:35:15.544Z,16.20
2023-02-09T09:37:44.980Z,16.10
2023-02-09T09:40:21.924Z,16.80
2023-02-09T09:42:56.619Z,15.02
2023-02-09T09:45:32.524Z,17.25
2023-02-09T09:48:02.108Z,15.60
2023-02-09T09:50:37.722Z,18.38
2023-02-09T09:53:18.584Z,17.52
2023-02-09T09:55:48.585Z,16.50
2023-02-09T09:58:23.591Z,16.52
2023-02-09T10:00:55.076Z,17.77
2023-02-09T10:03:26.482Z,18.40
2023-02-09T10:06:01.900Z,16.38
2023-02-09T10:08:38.066Z,16.75
2023-02-09T10:11:12.377Z,17.38
2023-02-09T10:13:49.840Z,18.50
2023-02-09T10:16:25.451Z,16.30
2023-02-09T10:18:58.482Z,18.40
2023-02-09T10:21:32.236Z,17.25
2023-02-09T10:24:14.313Z,15.85
2023-02-09T10:26:44.209Z,16.63
2023-02-09T10:29:26.633Z,15.23
2023-02-09T10:32:07.101Z,16.80
2023-02-09T10:34:48.016Z,13.93
2023-02-09T10:37:28.083Z,13.05
2023-02-09T10:40:15.997Z,13.38
2023-02-09T10:42:57.295Z,13.95
2023-02-09T10:45:30.885Z,14.57
2023-02-09T10:48:18.902Z,12.95
2023-02-09T10:50:55.411Z,13.40
2023-02-09T10:53:30.471Z,10.60
2023-02-09T10:56:07.913Z,11.48
2023-02-09T10:58:38.741Z,9.95
2023-02-09T11:01:20.329Z,9.70
2023-02-09T11:04:03.157Z,9.10
2023-02-09T11:06:44.472Z,10.13
2023-02-09T11:09:18.556Z,11.32
2023-02-09T11:11:48.144Z,10.98
2023-02-09T11:14:21.074Z,11.50
2023-02-09T11:17:18.208Z,8.38
2023-02-09T11:20:23.379Z,9.32
2023-02-09T11:23:12.545Z,8.48
2023-02-09T11:25:53.552Z,9.57
2023-02-09T11:28:43.395Z,10.93
2023-02-09T11:32:01.340Z,10.65
2023-02-09T11:35:01.809Z,10.18
2023-02-09T11:37:47.564Z,9.52
2023-02-09T11:40:37.561Z,8.85
2023-02-09T11:43:21.786Z,9.43
2023-02-09T11:45:53.821Z,10.13
2023-02-09T11:48:27.454Z,9.48
2023-02-09T11:51:06.868Z,8.68
2023-02-09T11:53:49.968Z,9.20
2023-02-09T11:56:24.735Z,8.25
2023-02-09T11:59:04.042Z,10.13
2023-02-09T12:01:43.614Z,10.70
2023-02-09T12:04:22.535Z,9.63
2023-02-09T12:06:58.330Z,10.00
2023-02-09T12:09:46.964Z,8.30
2023-02-09T12:12:27.167Z,9.77
2023-02-09T12:15:15.255Z,9.20
2023-02-09T12:17:51.654Z,9.00
2023-02-09T12:20:31.256Z,10.80
2023-02-09T12:23:08.089Z,9.90
2023-02-09T12:25:57.516Z,9.55
2023-02-09T12:28:45.975Z,8.55
2023-02-09T12:31:24.663Z,9.57
2023-02-09T12:34:29.467Z,9.93
2023-02-09T12:37:28.284Z,9.60
2023-02-09T12:40:38.578Z,10.50
2023-02-09T12:43:34.883Z,10.10
2023-02-09T12:46:51.790Z,9.20
2023-02-09T12:49:25.420Z,9.32
2023-02-09T12:52:17.872Z,9.50
2023-02-09T12:54:51.835Z,10.38
2023-02-09T12:57:55.589Z,10.77
2023-02-09T13:00:56.480Z,10.10
2023-02-09T13:03:27.993Z,9.60
2023-02-09T13:06:01.416Z,10.25
2023-02-09T13:11:30.332Z,9.73
2023-02-09T13:14:07.453Z,9.80
2023-02-09T13:17:20.601Z,9.57
2023-02-09T13:20:20.121Z,10.15
2023-02-09T13:23:10.705Z,10.73
2023-02-09T13:25:41.583Z,10.10
2023-02-09T13:28:18.023Z,9.50
2023-02-09T13:30:49.682Z,10.07
2023-02-09T13:33:36.457Z,10.48
2023-02-09T13:36:28.004Z,11.25
2023-02-09T13:38:58.123Z,10.93
2023-02-09T13:41:37.148Z,10.15
2023-02-09T13:44:23.331Z,9.07
2023-02-09T13:46:58.241Z,11.20
2023-02-09T13:49:30.516Z,10.85
2023-02-09T13:52:15.247Z,12.07
2023-02-09T13:54:45.259Z,11.20
2023-02-09T13:57:32.279Z,10.93
2023-02-09T14:00:14.654Z,11.18
2023-02-09T14:02:56.547Z,10.93
2023-02-09T14:05:40.653Z,11.20
2023-02-09T14:08:15.620Z,11.93
2023-02-09T14:10:51.427Z,11.20
2023-02-09T14:13:26.192Z,13.00
2023-02-09T14:16:08.635Z,12.50
2023-02-09T14:18:51.491Z,12.20
2023-02-09T14:21:32.552Z,12.00
2023-02-09T14:24:27.537Z,12.40
2023-02-09T14:27:04.724Z,12.13
2023-02-09T14:29:38.125Z,12.57
2023-02-09T14:32:32.907Z,13.07
2023-02-09T14:35:21.690Z,13.45
2023-02-09T14:37:53.883Z,12.73
2023-02-09T14:40:31.972Z,12.95
2023-02-09T14:43:17.144Z,13.00
2023-02-09T14:45:50.139Z,13.32
2023-02-09T14:48:22.821Z,13.68
2023-02-09T14:50:57.866Z,12.75
2023-02-09T14:53:31.388Z,14.98
2023-02-09T14:56:00.881Z,13.38
2023-02-09T14:58:33.311Z,13.75
2023-02-09T15:01:04.290Z,13.10
2023-02-09T23:56:05.624Z,22.00
2023-02-09T23:58:38.640Z,20.70
